createdAt,value
2024-05-09T00:00:06.378Z,18.3
2024-05-09T00:02:35.010Z,18.3
2024-05-09T00:05:06.074Z,18.3
2024-05-09T00:07:36.947Z,18.2
2024-05-09T00:10:11.739Z,18
2024-05-09T00:12:38.701Z,18
2024-05-09T00:15:09.167Z,18
2024-05-09T00:17:40.288Z,18.1
2024-05-09T00:20:14.178Z,17.9
2024-05-09T00:22:41.119Z,17.8
2024-05-09T00:25:11.467Z,17.9
2024-05-09T00:27:41.999Z,18
2024-05-09T00:30:14.661Z,18
2024-05-09T00:32:43.407Z,17.9
2024-05-09T00:35:14.280Z,17.7
2024-05-09T00:37:44.702Z,17.7
2024-05-09T00:40:22.233Z,17.5
2024-05-09T00:42:45.708Z,17.7
2024-05-09T00:45:16.690Z,17.6
2024-05-09T00:47:47.503Z,17.4
2024-05-09T00:50:22.460Z,17.5
2024-05-09T00:52:48.340Z,17.4
2024-05-09T00:55:18.645Z,17.2
2024-05-09T00:57:49.187Z,17.4
2024-05-09T01:00:26.560Z,17.5
2024-05-09T01:02:50.799Z,17
2024-05-09T01:05:20.987Z,17.3
2024-05-09T01:07:51.682Z,17.3
2024-05-09T01:10:24.281Z,17.2
2024-05-09T01:12:52.775Z,17.1
2024-05-09T01:15:24.035Z,17.2
2024-05-09T01:17:55.071Z,17
2024-05-09T01:20:31.715Z,17.2
2024-05-09T01:22:57.109Z,16.9
2024-05-09T01:25:28.446Z,17
2024-05-09T01:27:59.085Z,17
2024-05-09T01:33:00.421Z,17
2024-05-09T01:35:31.193Z,16.8
2024-05-09T01:38:02.098Z,17
2024-05-09T01:40:36.688Z,17
2024-05-09T01:43:03.508Z,16.9
2024-05-09T01:45:35.087Z,17.1
2024-05-09T01:48:06.152Z,17
2024-05-09T01:50:39.383Z,16.9
2024-05-09T01:53:08.831Z,17.1
2024-05-09T01:55:39.568Z,16.9
2024-05-09T01:58:09.949Z,17
2024-05-09T02:00:41.688Z,16.9
2024-05-09T02:03:12.412Z,17
2024-05-09T02:05:41.763Z,17.2
2024-05-09T02:08:12.578Z,17
2024-05-09T02:10:43.098Z,17
2024-05-09T02:13:14.183Z,17.1
2024-05-09T02:15:45.423Z,17.1
2024-05-09T02:18:16.285Z,17.2
2024-05-09T02:20:46.561Z,17.2
2024-05-09T02:23:17.719Z,17.1
2024-05-09T02:25:48.379Z,17.3
2024-05-09T02:28:18.876Z,17
2024-05-09T02:30:49.145Z,17
2024-05-09T02:33:19.512Z,17.2
2024-05-09T02:35:50.343Z,17.3
2024-05-09T02:38:20.567Z,17.3
2024-05-09T02:40:51.257Z,17.1
2024-05-09T02:43:21.997Z,17
2024-05-09T02:45:52.550Z,17.1
2024-05-09T02:48:23.043Z,17.1
2024-05-09T02:50:53.338Z,17
2024-05-09T02:53:23.644Z,17.1
2024-05-09T02:55:54.164Z,17
2024-05-09T02:58:24.722Z,17.1
2024-05-09T03:00:55.649Z,17.4
2024-05-09T03:03:26.273Z,17.2
2024-05-09T03:05:56.111Z,17.3
2024-05-09T03:08:26.746Z,17.1
2024-05-09T03:10:57.004Z,17
2024-05-09T03:13:27.332Z,17
2024-05-09T03:15:57.318Z,17.2
2024-05-09T03:18:27.356Z,17.2
2024-05-09T03:20:57.966Z,17.3
2024-05-09T03:23:28.378Z,17
2024-05-09T03:25:58.390Z,16.9
2024-05-09T03:28:28.835Z,17
2024-05-09T03:30:59.249Z,16.9
2024-05-09T03:33:29.317Z,17.1
2024-05-09T03:35:59.572Z,17.2
2024-05-09T03:38:29.716Z,16.9
2024-05-09T03:40:59.877Z,16.8
2024-05-09T03:43:29.874Z,16.8
2024-05-09T03:45:59.937Z,16.8
2024-05-09T03:48:29.992Z,16.5
2024-05-09T03:51:00.510Z,16.9
2024-05-09T03:53:31.119Z,16.7
2024-05-09T03:56:01.280Z,16.7
2024-05-09T03:58:31.804Z,16.7
2024-05-09T04:01:01.965Z,16.7
2024-05-09T04:03:32.545Z,16.5
2024-05-09T04:06:02.750Z,16.7
2024-05-09T04:08:33.454Z,16.7
2024-05-09T04:11:03.886Z,16.8
2024-05-09T04:13:34.479Z,16.6
2024-05-09T04:16:04.820Z,16.8
2024-05-09T04:18:35.558Z,16.8
2024-05-09T04:21:06.643Z,16.8
2024-05-09T04:23:37.511Z,17
2024-05-09T04:26:07.893Z,16.6
2024-05-09T04:28:38.521Z,16.7
2024-05-09T04:31:09.414Z,16.6
2024-05-09T04:33:40.217Z,16.9
2024-05-09T04:36:10.898Z,16.9
2024-05-09T04:38:41.606Z,16.8
2024-05-09T04:41:12.132Z,16.8
2024-05-09T04:43:42.295Z,16.7
2024-05-09T04:46:12.708Z,17.1
2024-05-09T04:48:43.572Z,16.8
2024-05-09T04:51:13.551Z,16.8
2024-05-09T04:53:44.501Z,17
2024-05-09T04:56:14.550Z,17.3
2024-05-09T04:58:44.601Z,17.1
2024-05-09T05:01:14.901Z,17.2
2024-05-09T05:03:46.376Z,17.5
2024-05-09T05:06:16.504Z,17.7
2024-05-09T05:08:47.145Z,18
2024-05-09T05:11:17.807Z,17.9
2024-05-09T05:13:48.146Z,17.9
2024-05-09T05:16:18.692Z,17.9
2024-05-09T05:18:49.326Z,17.8
2024-05-09T05:21:19.297Z,17.6
2024-05-09T05:23:49.747Z,17.8
2024-05-09T05:26:20.485Z,17.8
2024-05-09T05:28:50.969Z,17.6
2024-05-09T05:31:21.442Z,17.8
2024-05-09T05:33:51.983Z,17.8
2024-05-09T05:36:22.204Z,18
2024-05-09T05:38:53.243Z,18.3
2024-05-09T05:41:23.357Z,18.3
2024-05-09T05:43:53.905Z,18.2
2024-05-09T05:46:24.481Z,18.4
2024-05-09T05:48:55.165Z,18.2
2024-05-09T05:51:25.502Z,18.6
2024-05-09T05:53:56.156Z,18.7
2024-05-09T05:56:26.413Z,18.8
2024-05-09T05:58:57.316Z,18.9
2024-05-09T06:01:27.644Z,19.2
2024-05-09T06:03:57.737Z,19.3
2024-05-09T06:06:28.162Z,19.3
2024-05-09T06:08:59.180Z,19.6
2024-05-09T06:11:31.394Z,19.7
2024-05-09T06:14:02.460Z,20
2024-05-09T06:16:32.995Z,19.9
2024-05-09T06:19:03.498Z,19.9
2024-05-09T06:21:34.173Z,20
2024-05-09T06:24:06.189Z,19.9
2024-05-09T06:26:35.979Z,20.1
2024-05-09T06:29:07.031Z,20.5
2024-05-09T06:31:37.275Z,20.3
2024-05-09T06:34:07.528Z,20.3
2024-05-09T06:36:37.838Z,20.6
2024-05-09T06:39:08.339Z,20.5
2024-05-09T06:41:38.590Z,20.7
2024-05-09T06:44:09.242Z,21
2024-05-09T06:46:39.696Z,21
2024-05-09T06:49:09.826Z,20.8
2024-05-09T06:51:40.392Z,21
2024-05-09T06:54:11.430Z,21.1
2024-05-09T06:56:42.329Z,20.8
2024-05-09T06:59:12.812Z,20.9
2024-05-09T07:01:42.942Z,21.3
2024-05-09T07:04:13.426Z,21
2024-05-09T07:06:43.992Z,21.1
2024-05-09T07:09:14.355Z,21.1
2024-05-09T07:11:44.726Z,21.6
2024-05-09T07:14:14.883Z,21.4
2024-05-09T07:16:45.390Z,21.4
2024-05-09T07:19:15.600Z,21
2024-05-09T07:21:45.652Z,21.1
2024-05-09T07:24:16.236Z,21.3
2024-05-09T07:26:47.875Z,21.2
2024-05-09T07:29:18.311Z,21.3
2024-05-09T07:31:48.978Z,21.4
2024-05-09T07:34:19.498Z,21.6
2024-05-09T07:36:50.178Z,21.6
2024-05-09T07:39:20.416Z,21.5
2024-05-09T07:41:51.227Z,21.9
2024-05-09T07:44:21.630Z,22.1
2024-05-09T07:47:36.169Z,21.5
2024-05-09T07:52:49.230Z,21.3
2024-05-09T07:54:22.802Z,21.3
2024-05-09T07:56:56.816Z,21.1
2024-05-09T07:59:27.062Z,21.5
2024-05-09T08:01:57.591Z,20.9
2024-05-09T08:04:28.165Z,21.1
2024-05-09T08:06:58.278Z,21.3
2024-05-09T08:09:28.868Z,21.5
2024-05-09T08:11:59.475Z,21.7
2024-05-09T08:14:29.666Z,21.4
2024-05-09T08:16:59.904Z,21
2024-05-09T08:19:30.020Z,21.2
2024-05-09T08:22:00.445Z,21.1
2024-05-09T08:24:30.630Z,21.1
2024-05-09T08:27:00.491Z,20.9
2024-05-09T08:29:30.718Z,20.9
2024-05-09T08:32:01.107Z,21.1
2024-05-09T08:34:31.525Z,21.1
2024-05-09T08:37:09.756Z,21.5
2024-05-09T08:39:32.637Z,21.4
2024-05-09T08:42:02.738Z,21.4
2024-05-09T08:44:33.310Z,21.3
2024-05-09T08:47:04.173Z,21.2
2024-05-09T08:49:35.125Z,21.1
2024-05-09T08:52:04.848Z,21.1
2024-05-09T08:54:35.785Z,20.9
2024-05-09T08:57:05.896Z,21.1
2024-05-09T08:59:36.593Z,21.3
2024-05-09T09:02:06.988Z,21.3
2024-05-09T09:04:37.230Z,21.3
2024-05-09T09:07:07.317Z,21.9
2024-05-09T09:09:37.484Z,21.7
2024-05-09T09:12:09.550Z,21.7
2024-05-09T09:14:38.134Z,22
2024-05-09T09:17:08.294Z,21.8
2024-05-09T09:19:38.394Z,21.7
2024-05-09T09:22:08.659Z,22.1
2024-05-09T09:24:38.836Z,22.2
2024-05-09T09:27:08.893Z,22.4
2024-05-09T09:29:38.987Z,22.8
2024-05-09T09:32:09.559Z,22.6
2024-05-09T09:34:39.930Z,22.3
2024-05-09T09:37:10.584Z,22.4
2024-05-09T09:39:40.795Z,22.8
2024-05-09T09:42:10.864Z,22.7
2024-05-09T09:44:42.248Z,22.6
2024-05-09T09:47:11.610Z,22.5
2024-05-09T09:49:42.318Z,22.5
2024-05-09T09:52:13.235Z,22.3
2024-05-09T09:54:43.940Z,22.3
2024-05-09T09:57:18.396Z,22.7
2024-05-09T09:59:49.336Z,22.7
2024-05-09T10:02:19.969Z,22.7
2024-05-09T10:04:50.201Z,22.7
2024-05-09T10:07:20.137Z,22.3
2024-05-09T10:09:48.936Z,22.6
2024-05-09T10:12:19.465Z,22.9
2024-05-09T10:14:49.465Z,22.6
2024-05-09T10:17:19.821Z,22.6
2024-05-09T10:19:50.419Z,22.7
2024-05-09T10:22:20.930Z,22.7
2024-05-09T10:24:51.832Z,22.9
2024-05-09T10:27:22.345Z,23.2
2024-05-09T10:29:52.811Z,23
2024-05-09T10:32:23.729Z,22.9
2024-05-09T10:34:54.704Z,22.9
2024-05-09T10:37:24.993Z,22.8
2024-05-09T10:39:55.915Z,22.9
2024-05-09T10:42:26.243Z,22.9
2024-05-09T10:44:57.115Z,22.8
2024-05-09T10:47:27.475Z,23
2024-05-09T10:49:57.771Z,23
2024-05-09T10:52:28.229Z,23.1
2024-05-09T10:55:00.936Z,22.9
2024-05-09T10:57:29.892Z,23.4
2024-05-09T11:00:01.098Z,23.3
2024-05-09T11:02:31.304Z,23
2024-05-09T11:05:01.666Z,22.7
2024-05-09T11:07:32.056Z,22.2
2024-05-09T11:10:07.589Z,22.4
2024-05-09T11:12:35.647Z,22.1
2024-05-09T11:15:05.997Z,22.4
2024-05-09T11:17:36.374Z,22.3
2024-05-09T11:20:10.815Z,22
2024-05-09T11:22:37.733Z,22.1
2024-05-09T11:25:08.529Z,22.1
2024-05-09T11:27:39.761Z,21.9
2024-05-09T11:30:14.286Z,21.8
2024-05-09T11:32:40.527Z,21.9
2024-05-09T11:35:10.733Z,21.8
2024-05-09T11:37:41.090Z,21.8
2024-05-09T11:40:13.689Z,21.7
2024-05-09T11:42:41.591Z,21.8
2024-05-09T11:45:11.657Z,21.8
2024-05-09T11:47:42.597Z,21.7
2024-05-09T11:50:16.296Z,21.9
2024-05-09T11:52:44.161Z,21.6
2024-05-09T11:55:14.729Z,21.7
2024-05-09T11:57:44.985Z,21.7
2024-05-09T12:00:20.672Z,22
2024-05-09T12:02:47.282Z,21.9
2024-05-09T12:05:18.474Z,22
2024-05-09T12:07:48.360Z,22
2024-05-09T12:10:19.854Z,21.7
2024-05-09T12:12:49.416Z,22.2
2024-05-09T12:15:19.423Z,22.1
2024-05-09T12:17:50.898Z,22.1
2024-05-09T12:20:25.536Z,22.5
2024-05-09T12:22:50.976Z,22.4
2024-05-09T12:25:21.443Z,22.5
2024-05-09T12:27:51.656Z,22.5
2024-05-09T12:30:28.694Z,22.6
2024-05-09T12:32:52.376Z,22.1
2024-05-09T12:35:23.235Z,22
2024-05-09T12:37:53.356Z,22.1
2024-05-09T12:40:31.189Z,22.1
2024-05-09T12:42:54.582Z,22.3
2024-05-09T12:45:24.951Z,22.4
2024-05-09T12:47:55.402Z,22.3
2024-05-09T12:50:31.260Z,22.8
2024-05-09T12:52:55.868Z,22.6
2024-05-09T12:55:28.050Z,22.6
2024-05-09T12:57:56.490Z,22.3
2024-05-09T13:00:27.958Z,22.6
2024-05-09T13:02:55.348Z,22.5
2024-05-09T13:05:25.473Z,21.9
2024-05-09T13:07:55.349Z,22.3
2024-05-09T13:10:31.005Z,22.1
2024-05-09T13:12:56.358Z,21.9
2024-05-09T13:15:26.624Z,21.8
2024-05-09T13:17:58.422Z,22
2024-05-09T13:20:31.112Z,22
2024-05-09T13:22:57.179Z,22.2
2024-05-09T13:25:27.476Z,22.1
2024-05-09T13:27:57.784Z,22
2024-05-09T13:30:30.156Z,22.3
2024-05-09T13:32:58.210Z,22.2
2024-05-09T13:35:28.075Z,21.9
2024-05-09T13:37:58.626Z,21.6
2024-05-09T13:40:32.628Z,21.5
2024-05-09T13:42:59.465Z,21.8
2024-05-09T13:45:29.733Z,21.8
2024-05-09T13:48:00.021Z,22
2024-05-09T13:50:32.801Z,22.3
2024-05-09T13:53:00.273Z,21.9
2024-05-09T13:55:30.117Z,22.1
2024-05-09T13:58:00.465Z,22.2
2024-05-09T14:00:37.919Z,22.5
2024-05-09T14:03:01.175Z,22.1
2024-05-09T14:05:31.411Z,22.2
2024-05-09T14:08:01.597Z,22
2024-05-09T14:10:32.716Z,22.1
2024-05-09T14:13:01.566Z,22.1
2024-05-09T14:15:31.786Z,22
2024-05-09T14:18:02.125Z,21.8
2024-05-09T14:20:32.725Z,22.2
2024-05-09T14:23:02.609Z,21.9
2024-05-09T14:25:34.131Z,21.9
2024-05-09T14:28:03.368Z,22
2024-05-09T14:30:36.210Z,21.9
2024-05-09T14:33:03.968Z,21.7
2024-05-09T14:35:33.909Z,22.2
2024-05-09T14:38:03.970Z,22
2024-05-09T14:40:39.242Z,21.9
2024-05-09T14:43:04.874Z,21.9
2024-05-09T14:45:35.260Z,21.9
2024-05-09T14:48:05.425Z,21.7
2024-05-09T14:50:37.652Z,21.6
2024-05-09T14:53:07.150Z,21.8
2024-05-09T14:55:38.092Z,21.5
2024-05-09T14:58:07.755Z,21.5
2024-05-09T15:00:39.391Z,21.7
2024-05-09T15:03:08.480Z,21.8
2024-05-09T15:05:38.754Z,21.7
2024-05-09T15:08:09.212Z,21.4
2024-05-09T15:10:39.561Z,21.4
2024-05-09T15:13:10.546Z,21.4
2024-05-09T15:15:40.642Z,21.3
2024-05-09T15:18:11.830Z,21.5
2024-05-09T15:20:42.439Z,21.3
2024-05-09T15:23:11.955Z,21.5
2024-05-09T15:25:42.336Z,21.5
2024-05-09T15:28:12.830Z,21.6
2024-05-09T15:30:45.347Z,21.4
2024-05-09T15:33:12.886Z,21.3
2024-05-09T15:35:43.169Z,21.6
2024-05-09T15:38:13.568Z,21.1
2024-05-09T15:40:43.882Z,21.3
2024-05-09T15:43:14.126Z,21.2
2024-05-09T15:45:44.488Z,21.5
2024-05-09T15:48:14.802Z,21.2
2024-05-09T15:50:45.046Z,21.1
2024-05-09T15:53:15.059Z,21
2024-05-09T15:55:45.122Z,21.3
2024-05-09T15:58:15.436Z,21.3
2024-05-09T16:00:47.074Z,21.3
2024-05-09T16:03:16.786Z,21.2
2024-05-09T16:05:47.563Z,21.2
2024-05-09T16:08:17.023Z,21.3
2024-05-09T16:10:47.427Z,21.4
2024-05-09T16:13:17.778Z,21.1
2024-05-09T16:15:47.486Z,21.3
2024-05-09T16:18:17.709Z,21.2
2024-05-09T16:20:49.443Z,21.3
2024-05-09T16:23:18.020Z,21.1
2024-05-09T16:25:48.636Z,20.8
2024-05-09T16:28:18.601Z,20.9
2024-05-09T16:30:48.709Z,21.2
2024-05-09T16:33:19.407Z,21.2
2024-05-09T16:35:49.121Z,21
2024-05-09T16:38:19.372Z,21.1
2024-05-09T16:40:50.077Z,21.2
2024-05-09T16:43:21.340Z,21.2
2024-05-09T16:45:51.578Z,21
2024-05-09T16:48:22.041Z,20.7
2024-05-09T16:50:52.617Z,20.2
2024-05-09T16:53:23.104Z,20.5
2024-05-09T16:55:53.011Z,20.7
2024-05-09T16:58:23.638Z,20.3
2024-05-09T17:00:54.161Z,20.5
2024-05-09T17:03:24.421Z,20.6
2024-05-09T17:05:55.098Z,20.1
2024-05-09T17:08:25.317Z,20.5
2024-05-09T17:10:55.798Z,20.2
2024-05-09T17:13:25.842Z,20.4
2024-05-09T17:15:55.954Z,20.3
2024-05-09T17:18:26.911Z,20.3
2024-05-09T17:20:57.495Z,20.3
2024-05-09T17:23:28.221Z,20.3
2024-05-09T17:25:57.937Z,20.2
2024-05-09T17:28:28.685Z,19.6
2024-05-09T17:30:59.873Z,20
2024-05-09T17:33:30.358Z,19.6
2024-05-09T17:35:59.834Z,19.5
2024-05-09T17:38:29.928Z,19.8
2024-05-09T17:41:00.400Z,19.5
2024-05-09T17:43:30.820Z,19.6
2024-05-09T17:46:00.930Z,19.7
2024-05-09T17:48:31.288Z,19.5
2024-05-09T17:51:01.783Z,19.7
2024-05-09T17:53:32.151Z,19.2
2024-05-09T17:56:02.050Z,19.4
2024-05-09T17:58:32.669Z,19.2
2024-05-09T18:01:03.012Z,19.3
2024-05-09T18:03:33.545Z,19.3
2024-05-09T18:06:03.741Z,19.4
2024-05-09T18:08:33.938Z,19
2024-05-09T18:11:04.246Z,18.9
2024-05-09T18:13:34.449Z,19.2
2024-05-09T18:16:04.412Z,18.9
2024-05-09T18:18:34.624Z,19.1
2024-05-09T18:21:04.784Z,19.2
2024-05-09T18:23:34.968Z,19.2
2024-05-09T18:26:05.339Z,19.1
2024-05-09T18:28:35.279Z,18.7
2024-05-09T18:31:05.109Z,18.7
2024-05-09T18:33:36.231Z,18.9
2024-05-09T18:36:06.505Z,18.6
2024-05-09T18:38:37.168Z,18.7
2024-05-09T18:41:07.700Z,18.7
2024-05-09T18:43:42.089Z,18.6
2024-05-09T18:46:08.464Z,18.7
2024-05-09T18:48:38.932Z,18.9
2024-05-09T18:51:09.347Z,18.9
2024-05-09T18:53:40.856Z,18.6
2024-05-09T18:56:09.975Z,18.9
2024-05-09T18:58:40.075Z,19
2024-05-09T19:01:10.617Z,18.8
2024-05-09T19:03:41.572Z,18.9
2024-05-09T19:06:11.396Z,18.6
2024-05-09T19:08:41.362Z,18.3
2024-05-09T19:11:11.497Z,18.4
2024-05-09T19:13:41.577Z,18.6
2024-05-09T19:16:11.715Z,18.7
2024-05-09T19:18:42.010Z,18.7
2024-05-09T19:21:11.803Z,18.8
2024-05-09T19:23:46.792Z,18.6
2024-05-09T19:26:11.849Z,18.3
2024-05-09T19:28:42.133Z,18.5
2024-05-09T19:31:11.017Z,18.3
2024-05-09T19:33:41.116Z,17.9
2024-05-09T19:36:11.062Z,18
2024-05-09T19:38:41.466Z,17.8
2024-05-09T19:41:11.475Z,17.5
2024-05-09T19:43:41.892Z,17.7
2024-05-09T19:46:11.963Z,18
2024-05-09T19:48:42.386Z,18
2024-05-09T19:51:12.201Z,17.7
2024-05-09T19:53:42.356Z,17.6
2024-05-09T19:56:12.599Z,18
2024-05-09T19:58:42.945Z,18
2024-05-09T20:01:13.275Z,18.1
2024-05-09T20:03:43.696Z,18
2024-05-09T20:06:13.667Z,18.1
2024-05-09T20:08:44.131Z,18.2
2024-05-09T20:11:14.389Z,18.1
2024-05-09T20:13:44.876Z,18.1
2024-05-09T20:16:15.185Z,17.6
2024-05-09T20:18:45.741Z,18
2024-05-09T20:21:15.803Z,17.9
2024-05-09T20:23:45.623Z,18
2024-05-09T20:26:16.567Z,17.8
2024-05-09T20:28:46.680Z,17.4
2024-05-09T20:31:17.545Z,17.6
2024-05-09T20:33:48.259Z,17.6
2024-05-09T20:36:18.300Z,17.7
2024-05-09T20:38:48.676Z,17.2
2024-05-09T20:41:19.014Z,17.6
2024-05-09T20:43:49.023Z,17.2
2024-05-09T20:46:19.200Z,17.1
2024-05-09T20:48:49.589Z,17.3
2024-05-09T20:51:19.621Z,16.9
2024-05-09T20:53:49.664Z,17.2
2024-05-09T20:56:19.906Z,17.5
2024-05-09T20:58:50.306Z,17.1
2024-05-09T21:01:20.660Z,17.4
2024-05-09T21:03:51.285Z,17.3
2024-05-09T21:06:21.128Z,17
2024-05-09T21:08:51.446Z,17.2
2024-05-09T21:11:21.656Z,17.1
2024-05-09T21:13:51.663Z,16.7
2024-05-09T21:16:21.761Z,17
2024-05-09T21:18:51.649Z,16.6
2024-05-09T21:21:24.008Z,17
2024-05-09T21:23:54.266Z,16.9
2024-05-09T21:26:24.694Z,16.8
2024-05-09T21:28:54.759Z,16.8
2024-05-09T21:31:24.849Z,17.1
2024-05-09T21:33:55.045Z,16.3
2024-05-09T21:36:24.785Z,16.1
2024-05-09T21:38:55.167Z,16.2
2024-05-09T21:41:25.219Z,16.6
2024-05-09T21:43:55.570Z,16.8
2024-05-09T21:46:26.378Z,16.9
2024-05-09T21:48:56.922Z,16.9
2024-05-09T21:51:26.675Z,17
2024-05-09T21:53:56.934Z,16.8
2024-05-09T21:56:27.135Z,16.9
2024-05-09T21:58:57.183Z,16.5
2024-05-09T22:01:27.535Z,16.5
2024-05-09T22:03:58.410Z,16.7
2024-05-09T22:06:28.531Z,16.6
2024-05-09T22:08:59.023Z,16.8
2024-05-09T22:11:29.382Z,16.4
2024-05-09T22:14:00.332Z,16.6
2024-05-09T22:16:30.767Z,16.8
2024-05-09T22:19:01.107Z,16.8
2024-05-09T22:21:31.472Z,16.4
2024-05-09T22:24:01.544Z,16.3
2024-05-09T22:26:32.099Z,16
2024-05-09T22:29:02.687Z,16.5
2024-05-09T22:31:32.928Z,16.4
2024-05-09T22:34:03.604Z,16.5
2024-05-09T22:36:33.686Z,15.9
2024-05-09T22:39:04.026Z,16.1
2024-05-09T22:41:34.296Z,16.3
2024-05-09T22:44:04.735Z,16.4
2024-05-09T22:46:34.877Z,16
2024-05-09T22:49:05.467Z,16
2024-05-09T22:51:36.127Z,15.9
2024-05-09T22:54:06.578Z,16.2
2024-05-09T22:56:36.913Z,15.8
2024-05-09T22:59:05.919Z,16.4
2024-05-09T23:01:36.291Z,16.4
2024-05-09T23:04:06.696Z,16.1
2024-05-09T23:06:37.100Z,16.3
2024-05-09T23:09:09.005Z,16
2024-05-09T23:11:37.571Z,15.9
2024-05-09T23:14:06.590Z,15.9
2024-05-09T23:16:36.834Z,16
2024-05-09T23:19:07.287Z,16.1
2024-05-09T23:21:37.902Z,16.1
2024-05-09T23:24:08.331Z,15.7
2024-05-09T23:26:38.637Z,15.6
2024-05-09T23:29:11.331Z,15.3
2024-05-09T23:31:41.645Z,15.6
2024-05-09T23:34:12.122Z,15.9
2024-05-09T23:36:42.068Z,15.5
2024-05-09T23:39:12.766Z,15.6
2024-05-09T23:41:43.203Z,16
2024-05-09T23:44:13.509Z,15.6
2024-05-09T23:46:44.427Z,16
2024-05-09T23:49:15.125Z,16
2024-05-09T23:51:45.370Z,15.8
2024-05-09T23:54:15.445Z,15.6
2024-05-09T23:56:46.018Z,15.8
2024-05-09T23:59:16.416Z,15.9
